KISO/ISO METAR and TAF weather

Enter ICAO airport designator
Station Type Date Time Source
KISO METAR 2022/06/28 08:35 UTC NOAA

KISO 280835Z AUTO 34003KT 7SM OVC005 23/22 A3009 RMK AO2 T02250220


Station Type Date Time Source
KISO Decoded METAR 2022/06/28 08:35 UTC NOAA

Kinston, Kinston Regional Jetport at Stallings Field, NC, United States (KISO) 35-20N 077-37W
Jun 28, 2022 - 04:35 AM EDT / 2022.06.28 0835 UTC
Wind: from the NNW (340 degrees) at 3 MPH (3 KT):0
Visibility: 7 mile(s):0
Sky conditions: overcast
Temperature: 72.5 F (22.5 C)
Dew Point: 71.6 F (22.0 C)
Relative Humidity: 97%
Pressure (altimeter): 30.09 in. Hg (1018 hPa)
ob: KISO 280835Z AUTO 34003KT 7SM OVC005 23/22 A3009 RMK AO2 T02250220
cycle: 8

Station Type Date Time Source
KISO TAF 2022/06/28 08:51 UTC NOAA

TAF
AMD KISO 280748Z 2808/2906 00000KT P6SM BKN005 OVC012
FM281200 02006KT P6SM BKN035
FM281400 04008G13KT P6SM BKN045
AMD LTD TO CLD VIS AND WIND

Example: see airport list